Terminal Aerodrome Forecast
Issued by NWS

Home | Current Version | Previous Version | Text Only | Print | Product List | Glossary On
Versions: 1 2 3 4 5 6 7 8 9 10 11 12 13 14 15 16 17 18 19 20 21 22 23 24 25 26
000
FTUS41 KBOX 302331
TAFBAF
TAF
KBAF 302331Z 3100/3124 19008KT P6SM BKN040
     FM310400 19006KT P6SM BKN030
     FM311200 20006KT 3SM BR BKN025
     FM311300 20007KT P6SM BKN025
     FM311500 20008KT P6SM BKN020
     FM311900 21008KT P6SM -SHRA BKN040
     FM312100 21007KT 5SM -SHRA VCTS OVC045CB=

USA.gov is the U.S. government's official web portal to all federal, state and local government web resources and services.